Time;durP1;ratioP1;P1;durP2;ratioP2;P2;SDS_P1;SDS_P2;PMS_P1;PMS_P2;Temp;Humidity;BMP_temperature;BMP_pressure;BME280_temperature;BME280_humidity;BME280_pressure;Samples;Min_cycle;Max_cycle;Signal;HPM_P1;HPM_P2
2021/04/29 07:27:14;;;;;;;30.37;20.00;;;8.80;99.90;;;;;;4386135;31;2457323;-59
2021/04/29 07:29:40;;;;;;;31.77;19.67;;;9.00;99.90;;;;;;4455447;32;20192;-61
2021/04/29 07:32:07;;;;;;;26.20;19.40;;;8.90;99.90;;;;;;4452447;32;20148;-59
2021/04/29 07:34:33;;;;;;;25.40;18.07;;;9.00;99.90;;;;;;4455911;32;20167;-60
2021/04/29 07:37:00;;;;;;;25.23;17.47;;;8.90;99.90;;;;;;4456526;32;20202;-62
2021/04/29 07:39:26;;;;;;;26.13;18.90;;;8.80;99.90;;;;;;4455115;32;20165;-61
2021/04/29 07:41:53;;;;;;;23.60;17.37;;;8.80;99.90;;;;;;4452073;32;20477;-55
2021/04/29 07:44:20;;;;;;;29.13;19.07;;;8.70;99.90;;;;;;4453205;32;20139;-61
2021/04/29 07:46:47;;;;;;;26.83;19.10;;;8.60;99.90;;;;;;4455443;32;20235;-59
2021/04/29 07:49:13;;;;;;;29.33;19.00;;;8.60;99.90;;;;;;4456335;32;20151;-58
2021/04/29 07:51:42;;;;;;;22.90;17.70;;;8.60;99.90;;;;;;4450749;32;20146;-60
2021/04/29 07:54:13;;;;;;;31.50;19.90;;;8.60;99.90;;;;;;4459898;32;20194;-56
2021/04/29 07:56:39;;;;;;;25.63;17.57;;;8.60;99.90;;;;;;4453961;32;20181;-59
2021/04/29 07:59:06;;;;;;;25.67;18.47;;;8.60;99.90;;;;;;4453371;32;20186;-58
2021/04/29 08:01:36;;;;;;;21.93;17.23;;;8.70;99.90;;;;;;4453081;32;20214;-57
2021/04/29 08:04:02;;;;;;;25.70;18.50;;;8.70;99.90;;;;;;4454223;32;20154;-61
2021/04/29 08:06:29;;;;;;;25.80;18.23;;;8.80;99.90;;;;;;4454292;32;20654;-64
2021/04/29 08:08:56;;;;;;;29.53;20.40;;;8.80;99.90;;;;;;4454114;32;20151;-57
2021/04/29 08:11:22;;;;;;;27.23;19.70;;;8.70;99.90;;;;;;4454690;32;20142;-58
2021/04/29 08:13:49;;;;;;;28.10;19.57;;;8.70;99.90;;;;;;4452475;32;20147;-57
2021/04/29 08:16:15;;;;;;;25.80;19.73;;;8.70;99.90;;;;;;4457199;32;20476;-57
2021/04/29 08:18:44;;;;;;;25.30;18.37;;;8.70;99.90;;;;;;4455246;32;20158;-58
2021/04/29 08:21:10;;;;;;;26.47;19.63;;;8.80;99.90;;;;;;4458201;32;20150;-60
2021/04/29 08:23:37;;;;;;;27.13;19.33;;;8.80;99.90;;;;;;4457090;32;20574;-58
2021/04/29 08:26:03;;;;;;;26.37;20.10;;;8.90;99.90;;;;;;4455355;32;20448;-57
2021/04/29 08:28:30;;;;;;;26.10;18.33;;;8.70;99.90;;;;;;4452968;32;20237;-60
2021/04/29 08:30:56;;;;;;;30.80;18.60;;;8.80;99.90;;;;;;4457021;32;20209;-57
2021/04/29 08:33:23;;;;;;;26.40;20.43;;;8.80;99.90;;;;;;4454217;32;20155;-59
2021/04/29 08:35:50;;;;;;;28.77;20.13;;;8.80;99.90;;;;;;4461345;32;20205;-59
2021/04/29 08:38:17;;;;;;;26.60;19.90;;;8.80;99.90;;;;;;4443929;32;20293;-61
2021/04/29 08:40:43;;;;;;;29.70;19.77;;;8.70;99.90;;;;;;4442945;32;20239;-60
2021/04/29 08:43:09;;;;;;;25.60;20.60;;;8.70;99.90;;;;;;4441596;32;20490;-60
2021/04/29 08:45:36;;;;;;;27.80;18.53;;;8.60;99.90;;;;;;4444766;32;20455;-59
2021/04/29 08:48:03;;;;;;;27.23;18.67;;;8.70;99.90;;;;;;4440234;32;20151;-61
2021/04/29 08:50:31;;;;;;;25.53;18.40;;;8.70;99.90;;;;;;4442702;32;20144;-60
2021/04/29 08:52:58;;;;;;;24.97;18.70;;;8.70;99.90;;;;;;4446486;32;20252;-60
2021/04/29 08:55:26;;;;;;;21.20;17.40;;;8.90;99.90;;;;;;4441966;32;20151;-59
2021/04/29 08:57:53;;;;;;;24.03;17.60;;;8.80;99.90;;;;;;4444724;32;20479;-59
2021/04/29 09:00:23;;;;;;;21.60;16.63;;;8.80;99.90;;;;;;4443691;32;20477;-61
2021/04/29 09:02:50;;;;;;;25.27;18.17;;;8.80;99.90;;;;;;4443885;32;20208;-57
2021/04/29 09:05:18;;;;;;;25.00;16.43;;;8.90;99.90;;;;;;4444561;32;20233;-61
2021/04/29 09:08:00;;;;;;;21.40;16.67;;;8.90;99.90;;;;;;4443689;32;20214;-60
2021/04/29 09:10:29;;;;;;;29.13;16.97;;;8.90;99.90;;;;;;4445121;32;20600;-59
2021/04/29 09:12:56;;;;;;;25.47;16.57;;;8.80;99.90;;;;;;4446315;32;20637;-57
2021/04/29 09:15:24;;;;;;;22.27;15.47;;;8.80;99.90;;;;;;4445116;32;20181;-62
2021/04/29 09:18:08;;;;;;;24.33;16.93;;;8.80;99.90;;;;;;4442638;32;20159;-58
2021/04/29 09:20:35;;;;;;;21.37;15.90;;;8.70;99.90;;;;;;4442469;32;20159;-61
2021/04/29 09:23:05;;;;;;;22.70;16.73;;;8.70;99.90;;;;;;4444618;32;20140;-57
2021/04/29 09:25:33;;;;;;;25.03;17.57;;;8.60;99.90;;;;;;4445306;32;20162;-56
2021/04/29 09:27:59;;;;;;;29.50;18.40;;;8.70;99.90;;;;;;4444677;32;20204;-57
2021/04/29 09:30:27;;;;;;;25.53;17.03;;;8.70;99.90;;;;;;4442730;32;20142;-58
2021/04/29 09:32:58;;;;;;;23.63;16.63;;;8.70;99.90;;;;;;4443227;32;20196;-58
2021/04/29 09:35:25;;;;;;;22.00;16.63;;;8.70;99.90;;;;;;4443543;32;20186;-59
2021/04/29 09:37:52;;;;;;;20.83;16.23;;;8.70;99.90;;;;;;4443442;32;20143;-60
2021/04/29 09:40:25;;;;;;;24.07;16.07;;;8.60;99.90;;;;;;4442620;32;20147;-58
2021/04/29 09:42:53;;;;;;;23.13;15.93;;;8.60;99.90;;;;;;4445170;32;20147;-58
2021/04/29 09:45:25;;;;;;;26.87;18.80;;;8.60;99.90;;;;;;4445100;32;20159;-59
2021/04/29 09:47:59;;;;;;;27.57;18.50;;;8.40;99.90;;;;;;4445113;32;20161;-58
2021/04/29 09:50:27;;;;;;;27.40;19.17;;;8.30;99.90;;;;;;4443949;32;20173;-58
2021/04/29 09:53:01;;;;;;;29.30;17.93;;;8.30;99.90;;;;;;4442862;32;20159;-62
2021/04/29 09:55:33;;;;;;;27.80;19.10;;;8.20;99.90;;;;;;4441039;32;20157;-56
2021/04/29 09:58:10;;;;;;;24.17;17.63;;;8.10;99.90;;;;;;4447773;32;20151;-59
2021/04/29 10:00:37;;;;;;;26.50;19.37;;;8.10;99.90;;;;;;4442375;32;20146;-60
2021/04/29 10:03:05;;;;;;;27.60;19.50;;;8.00;99.90;;;;;;4441331;32;20165;-59
2021/04/29 10:05:36;;;;;;;27.20;19.50;;;7.90;99.90;;;;;;4443522;32;20191;-58
2021/04/29 10:08:03;;;;;;;23.97;18.03;;;8.00;99.90;;;;;;4446507;32;20143;-58
2021/04/29 10:10:35;;;;;;;32.30;19.50;;;7.80;99.90;;;;;;4441756;32;20209;-59
2021/04/29 10:13:05;;;;;;;26.30;20.23;;;7.70;99.90;;;;;;4443607;32;20166;-60
2021/04/29 10:15:35;;;;;;;27.90;19.90;;;7.70;99.90;;;;;;4442067;32;20206;-59
2021/04/29 10:18:03;;;;;;;37.97;22.13;;;7.60;99.90;;;;;;4443534;32;20169;-58
2021/04/29 10:20:30;;;;;;;29.97;20.63;;;7.60;99.90;;;;;;4442370;32;20230;-59
2021/04/29 10:23:00;;;;;;;28.87;21.60;;;7.50;99.90;;;;;;4440964;32;20162;-58
2021/04/29 10:25:33;;;;;;;35.80;21.60;;;7.50;99.90;;;;;;4436519;32;20180;-60
2021/04/29 10:28:01;;;;;;;30.97;20.40;;;7.50;99.90;;;;;;4439427;32;20192;-58
2021/04/29 10:30:36;;;;;;;26.43;20.40;;;7.50;99.90;;;;;;4438925;32;20158;-58
2021/04/29 10:33:15;;;;;;;28.37;21.30;;;7.50;99.90;;;;;;4438268;32;20450;-54
2021/04/29 10:35:53;;;;;;;32.83;22.30;;;7.50;99.90;;;;;;4438573;32;20234;-61
2021/04/29 10:38:29;;;;;;;28.33;21.83;;;7.50;99.90;;;;;;4441046;32;20170;-60
2021/04/29 10:40:58;;;;;;;28.43;20.33;;;7.50;99.90;;;;;;4445867;32;20215;-58
2021/04/29 10:43:38;;;;;;;31.73;22.57;;;7.60;99.90;;;;;;4442855;32;20186;-57
2021/04/29 10:46:07;;;;;;;29.80;21.77;;;7.60;99.90;;;;;;4436494;32;20229;-57
2021/04/29 10:48:35;;;;;;;33.70;22.03;;;7.60;99.90;;;;;;4439315;32;20253;-61
2021/04/29 10:51:08;;;;;;;30.33;21.00;;;7.50;99.90;;;;;;4441946;32;20199;-58
2021/04/29 10:53:38;;;;;;;29.50;21.10;;;7.40;99.90;;;;;;4451096;32;20157;-56
2021/04/29 10:56:10;;;;;;;33.37;22.20;;;7.40;99.90;;;;;;4443542;32;20160;-55
2021/04/29 10:58:36;;;;;;;28.03;21.20;;;7.40;99.90;;;;;;4439747;32;20166;-61
2021/04/29 11:01:06;;;;;;;30.53;22.80;;;7.40;99.90;;;;;;4439360;32;20162;-58
2021/04/29 11:03:37;;;;;;;32.07;22.47;;;7.50;99.90;;;;;;4443055;32;20144;-56
2021/04/29 11:06:16;;;;;;;29.47;20.53;;;7.40;99.90;;;;;;4440619;32;20226;-60
2021/04/29 11:08:45;;;;;;;30.67;21.40;;;7.50;99.90;;;;;;4446866;32;20214;-60
2021/04/29 11:11:23;;;;;;;30.77;21.70;;;7.40;99.90;;;;;;4437787;32;20492;-56
2021/04/29 11:14:05;;;;;;;29.30;20.37;;;7.40;99.90;;;;;;4438293;32;20154;-59
2021/04/29 11:16:46;;;;;;;29.40;22.17;;;7.30;99.90;;;;;;4436824;32;20211;-56
2021/04/29 11:19:41;;;;;;;28.63;21.13;;;7.20;99.90;;;;;;4439359;32;20132;-60
2021/04/29 11:22:12;;;;;;;26.27;21.10;;;7.10;99.90;;;;;;4438788;32;20154;-56
2021/04/29 11:24:42;;;;;;;26.93;21.50;;;7.10;99.90;;;;;;4438984;32;20438;-56
2021/04/29 11:27:23;;;;;;;30.17;20.33;;;7.10;99.90;;;;;;4438015;32;20207;-60
2021/04/29 11:29:50;;;;;;;31.97;19.90;;;7.10;99.90;;;;;;4439222;32;20644;-60
2021/04/29 11:32:19;;;;;;;22.77;19.03;;;7.10;99.90;;;;;;4440881;32;20158;-60
2021/04/29 11:34:47;;;;;;;22.77;18.60;;;7.20;99.90;;;;;;4437142;32;20215;-56
2021/04/29 11:37:14;;;;;;;29.00;19.77;;;7.20;99.90;;;;;;4442910;32;20151;-60
2021/04/29 11:39:41;;;;;;;22.70;17.73;;;7.40;99.90;;;;;;4439470;32;20215;-57
2021/04/29 11:42:10;;;;;;;23.47;18.27;;;7.30;99.90;;;;;;4439594;32;20637;-58
2021/04/29 11:44:39;;;;;;;22.90;16.10;;;7.30;99.90;;;;;;4439407;32;20171;-56
2021/04/29 11:47:15;;;;;;;26.30;17.83;;;7.50;99.90;;;;;;4436092;32;20143;-61
2021/04/29 11:49:42;;;;;;;23.03;17.03;;;7.50;99.90;;;;;;4438152;32;20536;-56
2021/04/29 11:52:09;;;;;;;27.60;20.87;;;7.50;99.90;;;;;;4437883;32;20604;-55
2021/04/29 11:54:45;;;;;;;30.30;19.47;;;7.60;99.90;;;;;;4442536;32;20255;-59
2021/04/29 11:57:14;;;;;;;25.47;20.93;;;7.80;99.90;;;;;;4444764;32;20151;-55
2021/04/29 11:59:41;;;;;;;30.17;22.10;;;8.10;99.90;;;;;;4442229;32;20250;-57
2021/04/29 12:02:08;;;;;;;32.80;21.93;;;8.20;99.90;;;;;;4442335;32;20194;-59
2021/04/29 12:04:34;;;;;;;25.23;20.27;;;8.40;99.90;;;;;;4441264;32;20147;-59
2021/04/29 12:07:02;;;;;;;28.33;21.10;;;8.30;99.90;;;;;;4440378;32;20230;-53
2021/04/29 12:09:29;;;;;;;31.97;22.60;;;8.30;99.90;;;;;;4441836;32;20170;-58
2021/04/29 12:12:13;;;;;;;28.63;20.87;;;8.30;99.90;;;;;;4434914;32;20218;-57
2021/04/29 12:14:48;;;;;;;29.17;20.33;;;8.10;99.90;;;;;;4439409;32;20180;-54
2021/04/29 12:17:14;;;;;;;26.47;19.83;;;8.00;99.90;;;;;;4439433;32;20143;-58
2021/04/29 12:19:47;;;;;;;26.07;19.47;;;7.90;99.90;;;;;;4447342;32;20189;-57
2021/04/29 12:22:15;;;;;;;27.87;20.43;;;8.10;99.90;;;;;;4443304;32;20142;-59
2021/04/29 12:24:42;;;;;;;24.97;18.73;;;8.20;99.90;;;;;;4444188;32;20151;-58
2021/04/29 12:27:12;;;;;;;28.30;17.83;;;8.40;99.90;;;;;;4445361;32;20193;-59
2021/04/29 12:29:38;;;;;;;21.30;16.40;;;8.60;99.90;;;;;;4438699;32;20284;-58
2021/04/29 12:32:06;;;;;;;20.87;14.93;;;8.60;99.90;;;;;;4443808;32;20219;-61
2021/04/29 12:34:32;;;;;;;19.77;15.27;;;8.70;99.90;;;;;;4440739;32;20297;-62
2021/04/29 12:37:02;;;;;;;16.63;13.87;;;8.70;99.90;;;;;;4439821;32;20214;-57
2021/04/29 12:39:31;;;;;;;17.50;13.57;;;9.10;99.90;;;;;;4439706;32;20248;-59
2021/04/29 12:41:59;;;;;;;17.30;13.30;;;9.30;99.90;;;;;;4440881;32;20170;-61
2021/04/29 12:44:33;;;;;;;19.70;14.03;;;9.00;99.90;;;;;;4445360;32;20209;-57
2021/04/29 12:46:59;;;;;;;19.73;13.17;;;9.00;99.90;;;;;;4441840;32;20151;-59
2021/04/29 12:49:27;;;;;;;18.80;12.77;;;9.00;99.90;;;;;;4445039;32;20483;-59
2021/04/29 12:52:05;;;;;;;20.53;12.20;;;8.90;99.90;;;;;;4445114;32;20549;-60
2021/04/29 12:54:31;;;;;;;18.67;12.70;;;8.70;99.90;;;;;;4440742;32;20531;-60
2021/04/29 12:56:57;;;;;;;16.33;12.20;;;8.60;99.90;;;;;;4443742;32;20230;-58
2021/04/29 12:59:25;;;;;;;18.43;12.77;;;8.50;99.90;;;;;;4443403;32;20229;-58
2021/04/29 13:02:03;;;;;;;17.53;11.20;;;8.50;99.70;;;;;;4443916;32;20176;-61
2021/04/29 13:04:31;;;;;;;14.17;10.73;;;8.40;99.40;;;;;;4445476;32;20170;-59
2021/04/29 13:07:02;;;;;;;19.17;11.13;;;8.50;99.40;;;;;;4443626;32;20505;-60
2021/04/29 13:09:33;;;;;;;15.83;11.47;;;8.40;98.80;;;;;;4439201;32;20189;-57
2021/04/29 13:12:09;;;;;;;15.10;10.73;;;8.40;99.00;;;;;;4442423;32;20146;-58
2021/04/29 13:14:40;;;;;;;20.03;10.60;;;8.40;99.00;;;;;;4438534;32;20169;-57
2021/04/29 13:17:15;;;;;;;14.40;9.13;;;8.50;99.80;;;;;;4441740;32;20554;-61
2021/04/29 13:19:44;;;;;;;16.43;10.27;;;8.40;98.80;;;;;;4440000;32;20154;-60
2021/04/29 13:22:13;;;;;;;16.63;9.73;;;8.50;98.70;;;;;;4440991;32;20150;-59
2021/04/29 13:24:42;;;;;;;15.00;9.20;;;8.50;98.40;;;;;;4444754;32;20151;-58
2021/04/29 13:27:08;;;;;;;13.93;8.63;;;8.30;98.40;;;;;;4442249;32;21177;-59
2021/04/29 13:29:38;;;;;;;14.10;9.60;;;8.30;97.70;;;;;;4443913;32;20205;-58
2021/04/29 13:32:07;;;;;;;16.47;9.77;;;8.30;99.10;;;;;;4444091;32;20131;-55
2021/04/29 13:34:33;;;;;;;14.97;9.70;;;8.40;99.20;;;;;;4439926;32;20567;-57
2021/04/29 13:37:02;;;;;;;17.20;9.67;;;8.70;98.00;;;;;;4449363;32;20143;-60
2021/04/29 13:39:28;;;;;;;17.13;9.30;;;8.70;97.00;;;;;;4444532;32;20586;-60
2021/04/29 13:41:57;;;;;;;15.03;9.47;;;9.00;97.60;;;;;;4443147;32;20165;-59
2021/04/29 13:44:23;;;;;;;23.67;10.53;;;9.00;97.40;;;;;;4440132;32;20155;-60
2021/04/29 13:46:50;;;;;;;17.93;10.60;;;8.90;97.00;;;;;;4440695;32;20177;-58
2021/04/29 13:49:17;;;;;;;14.50;9.37;;;8.90;97.70;;;;;;4441381;32;20159;-57
2021/04/29 13:51:44;;;;;;;19.07;10.07;;;9.10;97.40;;;;;;4446517;32;20170;-59
2021/04/29 13:54:11;;;;;;;16.23;9.53;;;9.20;97.70;;;;;;4447045;32;20146;-56
2021/04/29 13:56:38;;;;;;;16.73;9.90;;;9.40;97.60;;;;;;4440871;32;20177;-57
2021/04/29 13:59:05;;;;;;;13.97;8.83;;;9.00;97.10;;;;;;4443081;32;20170;-57
2021/04/29 14:01:32;;;;;;;16.67;8.47;;;8.90;97.30;;;;;;4441745;32;20155;-58
2021/04/29 14:04:00;;;;;;;19.80;8.63;;;9.00;97.50;;;;;;4438315;32;20204;-61
2021/04/29 14:06:26;;;;;;;13.50;8.03;;;9.00;97.70;;;;;;4444527;32;20139;-54
2021/04/29 14:08:54;;;;;;;14.47;8.83;;;8.90;97.60;;;;;;4442501;32;20163;-57
2021/04/29 14:11:23;;;;;;;15.60;9.03;;;8.70;97.90;;;;;;4439034;32;20237;-56
2021/04/29 14:13:50;;;;;;;20.17;8.83;;;8.60;98.90;;;;;;4438992;32;20171;-58
2021/04/29 14:16:16;;;;;;;17.17;8.80;;;8.60;97.90;;;;;;4440718;32;20168;-59
2021/04/29 14:18:43;;;;;;;17.37;8.80;;;8.50;98.60;;;;;;4441357;32;20655;-56
2021/04/29 14:21:09;;;;;;;15.63;9.43;;;8.50;98.90;;;;;;4438751;32;20169;-57
2021/04/29 14:23:36;;;;;;;18.80;9.90;;;8.40;99.00;;;;;;4440993;32;20239;-58
2021/04/29 14:26:03;;;;;;;12.83;9.23;;;8.30;98.70;;;;;;4442437;32;20234;-55
2021/04/29 14:28:30;;;;;;;15.50;8.67;;;8.20;99.50;;;;;;4439477;32;20174;-57
2021/04/29 14:30:56;;;;;;;14.10;8.83;;;8.20;98.10;;;;;;4437533;32;20173;-57
2021/04/29 14:33:23;;;;;;;13.03;8.37;;;8.10;98.50;;;;;;4440355;32;20222;-53
2021/04/29 14:35:49;;;;;;;16.27;9.30;;;8.10;98.80;;;;;;4437785;32;20570;-59
2021/04/29 14:38:16;;;;;;;13.73;7.80;;;8.10;98.00;;;;;;4438183;32;20194;-55
2021/04/29 14:40:43;;;;;;;18.43;8.90;;;8.10;98.40;;;;;;4438232;32;20178;-57
2021/04/29 14:43:10;;;;;;;18.27;9.63;;;8.10;98.30;;;;;;4438945;32;20195;-57
2021/04/29 14:45:38;;;;;;;18.40;9.50;;;8.10;98.60;;;;;;4434267;32;20636;-59
2021/04/29 14:48:09;;;;;;;12.30;9.13;;;8.00;98.60;;;;;;4437717;32;20183;-57
2021/04/29 14:50:36;;;;;;;16.43;9.23;;;7.90;99.60;;;;;;4437194;32;20480;-60
2021/04/29 14:53:02;;;;;;;16.40;9.97;;;7.80;99.90;;;;;;4438708;32;20166;-58
2021/04/29 14:55:30;;;;;;;20.33;9.43;;;7.80;99.90;;;;;;4441248;32;20157;-56
2021/04/29 14:57:56;;;;;;;16.13;8.73;;;7.70;99.90;;;;;;4439050;32;20151;-57
2021/04/29 15:00:24;;;;;;;17.00;9.57;;;7.70;99.90;;;;;;4441700;32;20213;-61
2021/04/29 15:02:51;;;;;;;23.37;10.27;;;7.70;99.90;;;;;;4437687;32;20156;-60
2021/04/29 15:05:20;;;;;;;16.97;10.33;;;7.80;99.90;;;;;;4441555;32;20708;-58
2021/04/29 15:07:49;;;;;;;15.23;10.03;;;7.70;99.90;;;;;;4440720;32;20214;-58
2021/04/29 15:10:15;;;;;;;16.97;9.90;;;7.70;99.90;;;;;;4441576;32;20190;-57
2021/04/29 15:12:42;;;;;;;14.93;9.03;;;7.70;99.70;;;;;;4439382;32;20167;-60
2021/04/29 15:15:12;;;;;;;16.73;9.70;;;7.70;99.90;;;;;;4437052;32;20293;-56
2021/04/29 15:17:38;;;;;;;16.13;9.90;;;7.70;99.90;;;;;;4438821;32;20143;-60
2021/04/29 15:20:07;;;;;;;17.43;10.70;;;7.80;99.90;;;;;;4443659;32;20158;-59
2021/04/29 15:22:33;;;;;;;21.80;11.43;;;7.90;99.90;;;;;;4436905;32;20144;-58
2021/04/29 15:25:00;;;;;;;22.23;12.53;;;7.80;99.90;;;;;;4445199;32;20166;-59
2021/04/29 15:27:26;;;;;;;17.57;11.93;;;7.80;99.90;;;;;;4437993;32;20198;-56
2021/04/29 15:29:52;;;;;;;26.37;13.63;;;7.80;99.90;;;;;;4435754;32;20173;-58
2021/04/29 15:32:20;;;;;;;22.70;14.07;;;7.80;99.90;;;;;;4446205;32;20158;-56
2021/04/29 15:34:47;;;;;;;22.83;13.03;;;7.90;99.90;;;;;;4439568;32;20151;-57
2021/04/29 15:37:14;;;;;;;20.00;12.80;;;8.00;99.90;;;;;;4445522;32;20171;-57
2021/04/29 15:39:41;;;;;;;19.97;12.83;;;7.90;99.90;;;;;;4437219;32;20157;-57
2021/04/29 15:42:07;;;;;;;21.27;12.63;;;8.10;99.90;;;;;;4437525;32;20162;-60
2021/04/29 15:44:35;;;;;;;24.37;13.17;;;8.10;99.90;;;;;;4439736;32;20146;-53
2021/04/29 15:47:01;;;;;;;28.97;15.13;;;8.10;99.90;;;;;;4439596;32;20155;-58
2021/04/29 15:49:28;;;;;;;21.90;13.83;;;8.20;99.90;;;;;;4445144;32;20191;-61
2021/04/29 15:51:55;;;;;;;23.33;13.63;;;8.10;99.90;;;;;;4443220;32;20143;-61
2021/04/29 15:54:22;;;;;;;26.63;15.37;;;8.20;99.90;;;;;;4440108;32;20174;-59
2021/04/29 15:56:49;;;;;;;33.27;15.70;;;8.10;99.90;;;;;;4446580;32;20214;-57
2021/04/29 15:59:16;;;;;;;23.77;13.70;;;8.00;99.90;;;;;;4437633;32;20216;-58
2021/04/29 16:01:46;;;;;;;25.40;13.23;;;7.90;99.90;;;;;;4443952;32;20200;-58
2021/04/29 16:04:12;;;;;;;27.63;14.70;;;8.00;99.90;;;;;;4443209;32;20147;-57
2021/04/29 16:06:39;;;;;;;25.43;13.57;;;8.10;99.90;;;;;;4441198;32;20174;-58
2021/04/29 16:09:06;;;;;;;21.97;14.50;;;8.10;99.90;;;;;;4442938;32;20338;-58
2021/04/29 16:11:50;;;;;;;21.57;13.37;;;8.10;99.90;;;;;;4439979;32;20155;-58
2021/04/29 16:14:17;;;;;;;33.90;15.10;;;8.10;99.90;;;;;;4445380;32;20159;-60
2021/04/29 16:16:43;;;;;;;21.23;14.00;;;8.00;99.90;;;;;;4444865;32;20692;-59
2021/04/29 16:19:09;;;;;;;21.87;11.53;;;8.10;99.90;;;;;;4443724;32;20165;-58
2021/04/29 16:21:36;;;;;;;20.73;12.50;;;8.20;99.90;;;;;;4448140;32;20170;-57
2021/04/29 16:24:02;;;;;;;22.27;13.03;;;8.20;99.90;;;;;;4442771;32;20214;-55
2021/04/29 16:26:29;;;;;;;22.87;12.50;;;8.30;99.90;;;;;;4444997;32;20176;-58
2021/04/29 16:28:59;;;;;;;22.50;12.57;;;8.30;99.90;;;;;;4440459;32;20238;-58
2021/04/29 16:31:25;;;;;;;21.70;12.67;;;8.30;99.90;;;;;;4445140;32;20229;-61
2021/04/29 16:33:51;;;;;;;22.17;12.47;;;8.40;99.90;;;;;;4447079;32;20163;-59
2021/04/29 16:36:18;;;;;;;20.83;12.00;;;8.40;99.70;;;;;;4452578;32;20234;-59
2021/04/29 16:38:44;;;;;;;23.90;14.70;;;8.40;99.90;;;;;;4450365;32;20228;-59
2021/04/29 16:41:11;;;;;;;20.57;11.80;;;8.40;99.90;;;;;;4440051;32;20156;-58
2021/04/29 16:43:37;;;;;;;21.63;11.83;;;8.40;99.60;;;;;;4451797;32;20139;-59
2021/04/29 16:46:05;;;;;;;16.40;11.43;;;8.40;99.60;;;;;;4446576;32;20642;-58
2021/04/29 16:48:33;;;;;;;22.87;12.73;;;8.40;99.80;;;;;;4445398;32;20151;-59
2021/04/29 16:51:07;;;;;;;21.50;12.13;;;8.40;99.60;;;;;;4442874;32;20216;-59
2021/04/29 16:53:35;;;;;;;16.10;11.93;;;8.40;99.70;;;;;;4440614;32;20625;-60
2021/04/29 16:56:02;;;;;;;26.70;13.03;;;8.40;99.70;;;;;;4439230;32;20152;-59
2021/04/29 16:58:28;;;;;;;24.70;13.50;;;8.40;99.90;;;;;;4437872;32;20512;-59
2021/04/29 17:00:55;;;;;;;18.53;11.33;;;8.40;99.80;;;;;;4444668;32;20348;-57
2021/04/29 17:03:23;;;;;;;26.43;13.63;;;8.40;99.90;;;;;;4443456;32;20482;-59
2021/04/29 17:05:50;;;;;;;20.97;11.40;;;8.40;99.40;;;;;;4446408;32;20223;-59
2021/04/29 17:08:16;;;;;;;26.40;11.93;;;8.40;99.80;;;;;;4442244;32;20281;-59
2021/04/29 17:10:42;;;;;;;20.83;11.33;;;8.40;99.30;;;;;;4446510;32;20257;-58
2021/04/29 17:13:09;;;;;;;25.60;11.90;;;8.40;99.10;;;;;;4446072;32;20166;-58
2021/04/29 17:15:35;;;;;;;23.07;11.93;;;8.40;99.50;;;;;;4452435;32;20218;-58
2021/04/29 17:18:01;;;;;;;22.07;11.10;;;8.50;99.10;;;;;;4449651;32;20155;-58
2021/04/29 17:20:30;;;;;;;22.07;11.37;;;8.50;98.90;;;;;;4450202;32;20162;-57
2021/04/29 17:22:57;;;;;;;19.13;11.83;;;8.50;98.60;;;;;;4446629;32;20230;-60
2021/04/29 17:25:23;;;;;;;21.07;11.07;;;8.50;98.90;;;;;;4440795;32;20602;-60
2021/04/29 17:27:51;;;;;;;26.40;12.23;;;8.50;98.60;;;;;;4435397;32;20264;-60
2021/04/29 17:30:23;;;;;;;21.53;12.03;;;8.60;98.90;;;;;;4435221;32;20239;-59
2021/04/29 17:32:52;;;;;;;19.63;11.20;;;8.60;98.20;;;;;;4435506;32;20665;-59
2021/04/29 17:35:33;;;;;;;23.03;11.83;;;8.60;98.40;;;;;;4432586;32;20293;-62
2021/04/29 17:38:16;;;;;;;23.53;11.83;;;8.70;98.30;;;;;;4440332;32;20514;-60
2021/04/29 17:40:43;;;;;;;22.30;12.60;;;8.60;98.40;;;;;;4440184;32;20675;-59
2021/04/29 17:43:09;;;;;;;22.30;12.07;;;8.60;98.50;;;;;;4439665;32;20470;-61
2021/04/29 17:45:37;;;;;;;26.87;11.00;;;8.60;98.50;;;;;;4438122;32;20262;-60
2021/04/29 17:48:04;;;;;;;18.90;10.70;;;8.70;98.70;;;;;;4438471;32;20151;-62
2021/04/29 17:50:31;;;;;;;21.67;11.57;;;8.60;97.90;;;;;;4434128;32;20152;-60
2021/04/29 17:52:57;;;;;;;26.03;11.20;;;8.60;98.10;;;;;;4441723;32;20181;-59
2021/04/29 17:55:25;;;;;;;24.03;12.07;;;8.60;98.30;;;;;;4435564;32;20170;-61
2021/04/29 17:57:51;;;;;;;22.23;12.17;;;8.60;98.70;;;;;;4436517;32;20205;-59
2021/04/29 18:00:19;;;;;;;18.40;10.27;;;8.60;98.80;;;;;;4438417;32;20733;-59
2021/04/29 18:02:45;;;;;;;19.70;10.60;;;8.60;98.90;;;;;;4435116;32;20164;-61
2021/04/29 18:05:16;;;;;;;22.57;11.10;;;8.60;98.80;;;;;;4421689;32;20224;-57
2021/04/29 18:07:42;;;;;;;21.07;10.97;;;8.50;98.80;;;;;;4435694;32;20251;-59
2021/04/29 18:10:10;;;;;;;26.17;11.37;;;8.40;98.90;;;;;;4437748;32;20269;-61
2021/04/29 18:12:37;;;;;;;22.50;12.03;;;8.40;99.30;;;;;;4436215;32;20243;-58
2021/04/29 18:15:09;;;;;;;19.93;10.67;;;8.30;99.70;;;;;;4436839;32;20163;-63
2021/04/29 18:17:37;;;;;;;23.50;11.67;;;8.30;99.90;;;;;;4442435;32;20262;-62
2021/04/29 18:20:05;;;;;;;23.60;12.93;;;8.30;99.90;;;;;;4437861;32;20221;-59
2021/04/29 18:22:31;;;;;;;22.90;11.47;;;8.20;99.90;;;;;;4441537;32;20198;-58
2021/04/29 18:25:00;;;;;;;27.47;12.43;;;8.20;99.90;;;;;;4441657;32;20151;-59
2021/04/29 18:27:26;;;;;;;20.07;12.00;;;8.20;99.90;;;;;;4440790;32;20505;-59
2021/04/29 18:29:54;;;;;;;28.23;14.13;;;8.10;99.90;;;;;;4442395;32;20205;-58
2021/04/29 18:32:20;;;;;;;27.23;13.87;;;8.10;99.90;;;;;;4445005;32;20175;-63
2021/04/29 18:34:46;;;;;;;29.70;13.97;;;8.00;99.90;;;;;;4443627;32;20170;-60
2021/04/29 18:37:13;;;;;;;27.60;13.37;;;7.90;99.90;;;;;;4442334;32;20213;-59
2021/04/29 18:39:39;;;;;;;27.73;14.30;;;7.90;99.90;;;;;;4441964;32;20234;-59
2021/04/29 18:42:05;;;;;;;22.83;14.40;;;7.90;99.90;;;;;;4440020;32;20165;-62
2021/04/29 18:44:32;;;;;;;28.50;13.00;;;7.80;99.90;;;;;;4435287;32;20147;-60
2021/04/29 18:46:59;;;;;;;32.37;15.70;;;7.80;99.90;;;;;;4441694;32;20147;-60
2021/04/29 18:49:26;;;;;;;29.43;13.97;;;7.80;99.90;;;;;;4441392;32;20222;-59
2021/04/29 18:51:52;;;;;;;27.63;14.87;;;7.80;99.90;;;;;;4441070;32;20232;-58
2021/04/29 18:54:18;;;;;;;31.47;15.83;;;7.80;99.90;;;;;;4444776;32;20131;-58
2021/04/29 18:56:45;;;;;;;34.87;15.77;;;7.70;99.90;;;;;;4442984;32;20166;-60
2021/04/29 18:59:11;;;;;;;33.67;15.17;;;7.70;99.90;;;;;;4449872;32;20222;-59
2021/04/29 19:01:37;;;;;;;23.90;14.80;;;7.70;99.90;;;;;;4439482;32;20222;-60
2021/04/29 19:04:05;;;;;;;26.97;14.10;;;7.70;99.90;;;;;;4444828;32;20162;-59
2021/04/29 19:06:35;;;;;;;31.67;15.87;;;7.70;99.90;;;;;;4443101;32;20147;-58
2021/04/29 19:09:05;;;;;;;28.00;15.30;;;7.60;99.90;;;;;;4442531;32;20612;-60
2021/04/29 19:11:32;;;;;;;25.77;14.57;;;7.70;99.90;;;;;;4436042;32;20143;-57
2021/04/29 19:13:58;;;;;;;31.80;15.33;;;7.60;99.90;;;;;;4438766;32;20562;-60
2021/04/29 19:16:24;;;;;;;28.63;16.77;;;7.60;99.90;;;;;;4440592;32;20143;-59
2021/04/29 19:18:51;;;;;;;26.87;17.63;;;7.60;99.90;;;;;;4449739;32;20155;-61
2021/04/29 19:21:18;;;;;;;28.53;15.73;;;7.60;99.90;;;;;;4447121;32;20554;-62
2021/04/29 19:23:44;;;;;;;30.67;16.80;;;7.50;99.90;;;;;;4448645;32;20218;-63
2021/04/29 19:26:10;;;;;;;29.30;16.67;;;7.50;99.90;;;;;;4444767;32;20535;-59
2021/04/29 19:28:37;;;;;;;31.03;15.87;;;7.50;99.90;;;;;;4446919;32;20192;-61
2021/04/29 19:31:04;;;;;;;33.80;17.53;;;7.50;99.90;;;;;;4447272;32;20537;-58
2021/04/29 19:33:34;;;;;;;29.97;15.23;;;7.50;99.90;;;;;;4447145;32;20200;-59
2021/04/29 19:36:01;;;;;;;39.13;17.07;;;7.60;99.90;;;;;;4445558;32;20143;-59
2021/04/29 19:38:28;;;;;;;30.00;15.73;;;7.50;99.90;;;;;;4439639;32;20170;-59
2021/04/29 19:40:55;;;;;;;28.77;16.67;;;7.50;99.90;;;;;;4441925;32;20166;-60
2021/04/29 19:43:21;;;;;;;24.37;16.47;;;7.50;99.90;;;;;;4439794;32;20183;-59
2021/04/29 19:45:50;;;;;;;33.10;17.20;;;7.60;99.90;;;;;;4443629;32;20146;-62
2021/04/29 19:48:16;;;;;;;28.33;16.67;;;7.60;99.90;;;;;;4436905;32;20579;-60
2021/04/29 19:50:43;;;;;;;35.00;16.60;;;7.50;99.90;;;;;;4437943;32;20230;-62
2021/04/29 19:53:10;;;;;;;28.07;16.20;;;7.60;99.90;;;;;;4438345;32;20218;-57
2021/04/29 19:55:37;;;;;;;35.77;16.33;;;7.50;99.90;;;;;;4438239;32;20715;-57
2021/04/29 19:58:04;;;;;;;37.23;18.37;;;7.50;99.90;;;;;;4439021;32;20285;-58
2021/04/29 20:00:30;;;;;;;33.07;17.30;;;7.50;99.90;;;;;;4443297;32;20181;-57
2021/04/29 20:02:56;;;;;;;33.60;17.20;;;7.60;99.90;;;;;;4439045;32;20236;-59
2021/04/29 20:05:24;;;;;;;34.90;17.60;;;7.50;99.90;;;;;;4441595;32;20233;-61
2021/04/29 20:07:50;;;;;;;32.43;17.03;;;7.50;99.90;;;;;;4438713;32;20204;-58
2021/04/29 20:10:17;;;;;;;30.40;16.67;;;7.60;99.90;;;;;;4441518;32;20632;-61